createdAt,value
2017-05-21T00:00:25.801Z,974.62
2017-05-21T00:01:28.404Z,974.63
2017-05-21T00:02:30.781Z,974.64
2017-05-21T00:03:33.765Z,974.61
2017-05-21T00:04:36.153Z,974.68
2017-05-21T00:05:38.528Z,974.71
2017-05-21T00:06:40.910Z,974.73
2017-05-21T00:07:43.302Z,974.76
2017-05-21T00:08:46.293Z,974.75
2017-05-21T00:09:48.670Z,974.77
2017-05-21T00:10:51.050Z,974.79
2017-05-21T00:11:53.441Z,974.77
2017-05-21T00:12:55.802Z,974.76
2017-05-21T00:13:58.783Z,974.76
2017-05-21T00:15:01.139Z,974.74
2017-05-21T00:16:03.525Z,974.78
2017-05-21T00:17:05.922Z,974.79
2017-05-21T00:18:08.302Z,974.72
2017-05-21T00:19:11.293Z,974.78
2017-05-21T00:20:13.660Z,974.77
2017-05-21T00:21:16.039Z,974.81
2017-05-21T00:22:18.420Z,974.81
2017-05-21T00:23:20.787Z,974.78
2017-05-21T00:24:23.787Z,974.84
2017-05-21T00:25:26.157Z,974.89
2017-05-21T00:26:28.529Z,974.87
2017-05-21T00:27:30.923Z,974.91
2017-05-21T00:28:33.287Z,974.91
2017-05-21T00:29:36.260Z,974.94
2017-05-21T00:30:38.650Z,974.93
2017-05-21T00:31:41.249Z,974.98
2017-05-21T00:32:43.624Z,974.96
2017-05-21T00:33:46.018Z,975.03
2017-05-21T00:34:49.012Z,975.04
2017-05-21T00:35:51.401Z,975.09
2017-05-21T00:36:53.766Z,975.10
2017-05-21T00:37:56.154Z,975.11
2017-05-21T00:38:58.532Z,975.07
2017-05-21T00:40:01.522Z,975.11
2017-05-21T00:41:03.913Z,975.17
2017-05-21T00:42:06.291Z,975.08
2017-05-21T00:43:08.659Z,975.19
2017-05-21T00:44:11.016Z,975.15
2017-05-21T00:45:13.996Z,975.19
2017-05-21T00:46:16.373Z,975.19
2017-05-21T00:47:18.748Z,975.24
2017-05-21T00:48:21.138Z,975.23
2017-05-21T00:49:23.492Z,975.27
2017-05-21T00:50:26.455Z,975.27
2017-05-21T00:51:28.827Z,975.33
2017-05-21T00:52:31.202Z,975.38
2017-05-21T00:53:33.579Z,975.40
2017-05-21T00:54:35.927Z,975.42
2017-05-21T00:55:38.993Z,975.43
2017-05-21T00:56:41.348Z,975.48
2017-05-21T00:57:43.721Z,975.48
2017-05-21T00:58:46.075Z,975.47
2017-05-21T00:59:48.461Z,975.46
2017-05-21T01:00:51.426Z,975.49
2017-05-21T01:01:53.783Z,975.55
2017-05-21T01:02:56.161Z,975.55
2017-05-21T01:03:58.552Z,975.57
2017-05-21T01:05:00.911Z,975.55
2017-05-21T01:06:04.067Z,975.60
2017-05-21T01:07:06.440Z,975.57
2017-05-21T01:08:08.837Z,975.58
2017-05-21T01:09:11.215Z,975.57
2017-05-21T01:10:13.571Z,975.65
2017-05-21T01:11:16.562Z,975.68
2017-05-21T01:12:18.920Z,975.68
2017-05-21T01:13:21.299Z,975.70
2017-05-21T01:14:23.671Z,975.74
2017-05-21T01:15:26.049Z,975.76
2017-05-21T01:16:28.975Z,975.71
2017-05-21T01:17:31.350Z,975.73
2017-05-21T01:18:33.712Z,975.75
2017-05-21T01:19:36.086Z,975.71
2017-05-21T01:20:38.454Z,975.73
2017-05-21T01:21:41.519Z,975.77
2017-05-21T01:22:43.875Z,975.75
2017-05-21T01:23:46.231Z,975.82
2017-05-21T01:24:48.613Z,975.82
2017-05-21T01:25:50.997Z,975.86
2017-05-21T01:26:53.982Z,975.87
2017-05-21T01:27:56.377Z,975.86
2017-05-21T01:28:58.742Z,975.87
2017-05-21T01:30:01.095Z,975.92
2017-05-21T01:31:03.461Z,975.91
2017-05-21T01:32:06.370Z,975.89
2017-05-21T01:33:08.749Z,975.88
2017-05-21T01:34:11.133Z,975.92
2017-05-21T01:35:13.496Z,975.92
2017-05-21T01:36:15.865Z,975.96
2017-05-21T01:37:18.832Z,975.93
2017-05-21T01:38:21.206Z,975.97
2017-05-21T01:39:23.569Z,975.98
2017-05-21T01:40:25.949Z,975.99
2017-05-21T01:41:28.304Z,976.03
2017-05-21T01:42:31.582Z,976.07
2017-05-21T01:43:33.961Z,976.13
2017-05-21T01:44:36.321Z,976.14
2017-05-21T01:45:38.696Z,976.17
2017-05-21T01:46:41.076Z,976.20
2017-05-21T01:47:44.211Z,976.14
2017-05-21T01:48:46.597Z,976.23
2017-05-21T01:49:48.971Z,976.18
2017-05-21T01:50:51.333Z,976.20
2017-05-21T01:51:53.695Z,976.17
2017-05-21T01:52:56.604Z,976.18
2017-05-21T01:53:58.957Z,976.18
2017-05-21T01:55:01.328Z,976.20
2017-05-21T01:56:03.688Z,976.22
2017-05-21T01:57:06.062Z,976.20
2017-05-21T01:58:09.052Z,976.24
2017-05-21T01:59:11.370Z,976.25
2017-05-21T02:00:13.732Z,976.22
2017-05-21T02:01:16.116Z,976.25
2017-05-21T02:02:18.462Z,976.27
2017-05-21T02:03:21.377Z,976.21
2017-05-21T02:04:23.742Z,976.33
2017-05-21T02:05:26.107Z,976.31
2017-05-21T02:06:28.470Z,976.30
2017-05-21T02:07:30.819Z,976.31
2017-05-21T02:08:33.740Z,976.32
2017-05-21T02:09:36.129Z,976.32
2017-05-21T02:10:38.497Z,976.32
2017-05-21T02:11:40.857Z,976.34
2017-05-21T02:12:43.219Z,976.37
2017-05-21T02:13:46.182Z,976.34
2017-05-21T02:14:48.538Z,976.35
2017-05-21T02:15:50.891Z,976.32
2017-05-21T02:16:53.249Z,976.31
2017-05-21T02:17:55.611Z,976.36
2017-05-21T02:18:58.518Z,976.42
2017-05-21T02:20:00.874Z,976.37
2017-05-21T02:21:03.238Z,976.42
2017-05-21T02:22:05.593Z,976.42
2017-05-21T02:23:07.957Z,976.43
2017-05-21T02:24:11.015Z,976.41
2017-05-21T02:25:13.373Z,976.46
2017-05-21T02:26:15.723Z,976.47
2017-05-21T02:27:18.078Z,976.43
2017-05-21T02:28:20.436Z,976.48
2017-05-21T02:29:23.409Z,976.48
2017-05-21T02:30:25.756Z,976.46
2017-05-21T02:31:28.116Z,976.42
2017-05-21T02:32:30.465Z,976.43
2017-05-21T02:33:32.821Z,976.50
2017-05-21T02:34:35.735Z,976.48
2017-05-21T02:35:38.093Z,976.49
2017-05-21T02:36:40.465Z,976.53
2017-05-21T02:37:42.814Z,976.52
2017-05-21T02:38:45.179Z,976.51
2017-05-21T02:39:48.144Z,976.51
2017-05-21T02:40:50.497Z,976.56
2017-05-21T02:41:52.855Z,976.52
2017-05-21T02:42:55.222Z,976.54
2017-05-21T02:43:57.569Z,976.54
2017-05-21T02:45:00.484Z,976.52
2017-05-21T02:46:02.839Z,976.51
2017-05-21T02:47:05.205Z,976.52
2017-05-21T02:48:07.567Z,976.47
2017-05-21T02:49:09.922Z,976.51
2017-05-21T02:50:12.888Z,976.51
2017-05-21T02:51:15.248Z,976.48
2017-05-21T02:52:17.632Z,976.52
2017-05-21T02:53:19.988Z,976.50
2017-05-21T02:54:22.347Z,976.55
2017-05-21T02:55:25.411Z,976.57
2017-05-21T02:56:27.761Z,976.61
2017-05-21T02:57:30.128Z,976.56
2017-05-21T02:58:32.491Z,976.56
2017-05-21T02:59:34.850Z,976.55
2017-05-21T03:00:37.932Z,976.55
2017-05-21T03:01:40.277Z,976.58
2017-05-21T03:02:42.642Z,976.60
2017-05-21T03:03:45.007Z,976.62
2017-05-21T03:04:47.359Z,976.63
2017-05-21T03:05:50.318Z,976.65
2017-05-21T03:06:52.688Z,976.64
2017-05-21T03:07:55.055Z,976.64
2017-05-21T03:08:57.419Z,976.62
2017-05-21T03:09:59.781Z,976.64
2017-05-21T03:11:02.738Z,976.58
2017-05-21T03:12:05.169Z,976.57
2017-05-21T03:13:07.486Z,976.59
2017-05-21T03:14:09.854Z,976.61
2017-05-21T03:15:12.223Z,976.62
2017-05-21T03:16:15.156Z,976.61
2017-05-21T03:17:17.534Z,976.64
2017-05-21T03:18:19.886Z,976.66
2017-05-21T03:19:22.249Z,976.61
2017-05-21T03:20:24.618Z,976.64
2017-05-21T03:21:27.698Z,976.64
2017-05-21T03:22:30.080Z,976.64
2017-05-21T03:23:32.441Z,976.66
2017-05-21T03:24:34.796Z,976.72
2017-05-21T03:25:37.154Z,976.68
2017-05-21T03:26:40.145Z,976.76
2017-05-21T03:27:42.479Z,976.72
2017-05-21T03:28:44.858Z,976.76
2017-05-21T03:29:47.210Z,976.69
2017-05-21T03:30:49.564Z,976.79
2017-05-21T03:31:52.530Z,976.79
2017-05-21T03:32:54.897Z,976.81
2017-05-21T03:33:57.256Z,976.80
2017-05-21T03:34:59.617Z,976.84
2017-05-21T03:36:01.982Z,976.86
2017-05-21T03:37:04.949Z,976.86
2017-05-21T03:38:07.323Z,976.84
2017-05-21T03:39:09.683Z,976.91
2017-05-21T03:40:12.048Z,976.88
2017-05-21T03:41:14.403Z,976.92
2017-05-21T03:42:17.518Z,976.89
2017-05-21T03:43:19.881Z,976.96
2017-05-21T03:44:22.241Z,976.96
2017-05-21T03:45:24.602Z,977.03
2017-05-21T03:46:26.970Z,977.02
2017-05-21T03:47:29.925Z,977.03
2017-05-21T03:48:32.302Z,977.00
2017-05-21T03:49:34.651Z,977.00
2017-05-21T03:50:37.022Z,977.07
2017-05-21T03:51:39.378Z,977.03
2017-05-21T03:52:42.445Z,977.07
2017-05-21T03:53:45.010Z,977.07
2017-05-21T03:54:47.365Z,977.03
2017-05-21T03:55:49.735Z,977.09
2017-05-21T03:56:52.097Z,977.08
2017-05-21T03:57:55.052Z,977.08
2017-05-21T03:58:57.420Z,977.08
2017-05-21T03:59:59.773Z,977.10
2017-05-21T04:01:02.184Z,977.08
2017-05-21T04:02:04.483Z,977.08
2017-05-21T04:03:07.547Z,977.08
2017-05-21T04:04:09.904Z,977.06
2017-05-21T04:05:12.264Z,977.11
2017-05-21T04:06:14.615Z,977.12
2017-05-21T04:07:16.981Z,977.13
2017-05-21T04:08:19.953Z,977.15
2017-05-21T04:09:22.308Z,977.17
2017-05-21T04:10:24.676Z,977.16
2017-05-21T04:11:27.034Z,977.17
2017-05-21T04:12:29.388Z,977.21
2017-05-21T04:13:32.346Z,977.20
2017-05-21T04:14:34.710Z,977.20
2017-05-21T04:15:37.066Z,977.22
2017-05-21T04:16:39.433Z,977.19
2017-05-21T04:17:41.792Z,977.17
2017-05-21T04:18:44.748Z,977.19
2017-05-21T04:19:47.106Z,977.17
2017-05-21T04:20:49.464Z,977.24
2017-05-21T04:21:51.820Z,977.23
2017-05-21T04:22:54.180Z,977.22
2017-05-21T04:23:57.244Z,977.19
2017-05-21T04:24:59.600Z,977.21
2017-05-21T04:26:01.965Z,977.20
2017-05-21T04:27:04.326Z,977.19
2017-05-21T04:28:06.684Z,977.22
2017-05-21T04:29:09.639Z,977.16
2017-05-21T04:30:11.994Z,977.17
2017-05-21T04:31:14.363Z,977.18
2017-05-21T04:32:16.715Z,977.15
2017-05-21T04:33:19.074Z,977.17
2017-05-21T04:34:22.029Z,977.16
2017-05-21T04:35:24.404Z,977.17
2017-05-21T04:36:26.763Z,977.14
2017-05-21T04:37:29.117Z,977.16
2017-05-21T04:38:31.478Z,977.14
2017-05-21T04:39:34.542Z,977.11
2017-05-21T04:40:36.900Z,977.08
2017-05-21T04:41:39.262Z,977.08
2017-05-21T04:42:41.620Z,977.08
2017-05-21T04:43:43.978Z,977.10
2017-05-21T04:44:46.937Z,977.10
2017-05-21T04:45:49.290Z,977.09
2017-05-21T04:46:51.649Z,977.11
2017-05-21T04:47:54.018Z,977.09
2017-05-21T04:48:56.370Z,977.15
2017-05-21T04:49:59.338Z,977.08
2017-05-21T04:51:01.695Z,977.08
2017-05-21T04:52:04.050Z,977.07
2017-05-21T04:53:06.403Z,977.12
2017-05-21T04:54:08.766Z,977.10
2017-05-21T04:55:11.818Z,977.11
2017-05-21T04:56:14.178Z,977.09
2017-05-21T04:57:16.529Z,977.07
2017-05-21T04:58:18.881Z,977.06
2017-05-21T04:59:21.245Z,977.01
2017-05-21T05:00:24.199Z,977.04
2017-05-21T05:01:26.587Z,976.98
2017-05-21T05:02:28.972Z,976.98
2017-05-21T05:03:31.366Z,976.96
2017-05-21T05:04:33.743Z,976.98
2017-05-21T05:05:36.930Z,977.00
2017-05-21T05:06:39.315Z,976.99
2017-05-21T05:07:41.703Z,976.96
2017-05-21T05:08:44.067Z,976.97
2017-05-21T05:09:46.493Z,976.96
2017-05-21T05:10:49.547Z,976.94
2017-05-21T05:11:51.912Z,976.89
2017-05-21T05:12:54.266Z,976.90
2017-05-21T05:13:56.642Z,976.88
2017-05-21T05:14:59.008Z,976.87
2017-05-21T05:16:02.068Z,976.86
2017-05-21T05:17:04.422Z,976.83
2017-05-21T05:18:06.779Z,976.90
2017-05-21T05:19:09.143Z,976.88
2017-05-21T05:20:11.507Z,976.89
2017-05-21T05:21:14.462Z,976.85
2017-05-21T05:22:16.828Z,976.85
2017-05-21T05:23:19.188Z,976.85
2017-05-21T05:24:21.550Z,976.88
2017-05-21T05:25:23.905Z,976.88
2017-05-21T05:26:26.880Z,976.85
2017-05-21T05:27:29.241Z,976.82
2017-05-21T05:28:31.592Z,976.80
2017-05-21T05:29:33.960Z,976.76
2017-05-21T05:30:36.311Z,976.80
2017-05-21T05:31:39.296Z,976.79
2017-05-21T05:32:41.648Z,976.77
2017-05-21T05:33:44.011Z,976.77
2017-05-21T05:34:46.380Z,976.77
2017-05-21T05:35:48.732Z,976.77
2017-05-21T05:36:51.692Z,976.70
2017-05-21T05:37:54.048Z,976.70
2017-05-21T05:38:56.414Z,976.67
2017-05-21T05:39:58.773Z,976.69
2017-05-21T05:41:01.136Z,976.70
2017-05-21T05:42:04.106Z,976.71
2017-05-21T05:43:06.463Z,976.71
2017-05-21T05:44:08.825Z,976.70
2017-05-21T05:45:11.175Z,976.70
2017-05-21T05:46:13.532Z,976.71
2017-05-21T05:47:16.498Z,976.69
2017-05-21T05:48:18.857Z,976.68
2017-05-21T05:49:21.214Z,976.69
2017-05-21T05:50:23.578Z,976.67
2017-05-21T05:51:25.924Z,976.69
2017-05-21T05:52:28.990Z,976.67
2017-05-21T05:53:31.334Z,976.67
2017-05-21T05:54:33.695Z,976.68
2017-05-21T05:55:36.057Z,976.67
2017-05-21T05:56:38.408Z,976.67
2017-05-21T05:57:41.470Z,976.67
2017-05-21T05:58:43.827Z,976.67
2017-05-21T05:59:46.195Z,976.66
2017-05-21T06:00:48.541Z,976.64
2017-05-21T06:01:50.892Z,976.63
2017-05-21T06:02:53.802Z,976.59
2017-05-21T06:03:56.151Z,976.58
2017-05-21T06:04:58.512Z,976.58
2017-05-21T06:06:00.875Z,976.59
2017-05-21T06:07:03.231Z,976.55
2017-05-21T06:08:06.293Z,976.55
2017-05-21T06:09:08.649Z,976.57
2017-05-21T06:10:11.008Z,976.54
2017-05-21T06:11:13.371Z,976.50
2017-05-21T06:12:15.723Z,976.48
2017-05-21T06:13:18.681Z,976.42
2017-05-21T06:14:21.040Z,976.45
2017-05-21T06:15:23.394Z,976.41
2017-05-21T06:16:25.757Z,976.43
2017-05-21T06:17:28.111Z,976.41
2017-05-21T06:18:31.070Z,976.40
2017-05-21T06:19:33.431Z,976.36
2017-05-21T06:20:35.788Z,976.39
2017-05-21T06:21:38.151Z,976.38
2017-05-21T06:22:40.504Z,976.31
2017-05-21T06:23:43.560Z,976.33
2017-05-21T06:24:45.921Z,976.27
2017-05-21T06:25:48.279Z,976.33
2017-05-21T06:26:50.640Z,976.28
2017-05-21T06:27:52.996Z,976.29
2017-05-21T06:28:55.903Z,976.30
2017-05-21T06:29:58.257Z,976.29
2017-05-21T06:31:00.616Z,976.26
2017-05-21T06:32:02.969Z,976.29
2017-05-21T06:33:05.323Z,976.27
2017-05-21T06:34:08.281Z,976.24
2017-05-21T06:35:10.640Z,976.26
2017-05-21T06:36:13.004Z,976.27
2017-05-21T06:37:15.358Z,976.25
2017-05-21T06:38:17.720Z,976.29
2017-05-21T06:39:20.768Z,976.27
2017-05-21T06:40:23.131Z,976.25
2017-05-21T06:41:25.484Z,976.24
2017-05-21T06:42:27.835Z,976.25
2017-05-21T06:43:30.183Z,976.26
2017-05-21T06:44:33.146Z,976.23
2017-05-21T06:45:35.508Z,976.29
2017-05-21T06:46:37.862Z,976.26
2017-05-21T06:47:40.216Z,976.29
2017-05-21T06:48:42.572Z,976.29
2017-05-21T06:49:45.527Z,976.28
2017-05-21T06:50:47.872Z,976.30
2017-05-21T06:51:50.229Z,976.35
2017-05-21T06:52:52.576Z,976.32
2017-05-21T06:53:54.938Z,976.32
2017-05-21T06:54:57.999Z,976.33
2017-05-21T06:56:00.358Z,976.28
2017-05-21T06:57:02.723Z,976.33
2017-05-21T06:58:05.078Z,976.34
2017-05-21T06:59:07.440Z,976.33
2017-05-21T07:00:10.401Z,976.27
2017-05-21T07:01:12.752Z,976.29
2017-05-21T07:02:15.126Z,976.30
2017-05-21T07:03:17.466Z,976.27
2017-05-21T07:04:19.822Z,976.29
2017-05-21T07:05:22.771Z,976.26
2017-05-21T07:06:25.134Z,976.23
2017-05-21T07:07:27.488Z,976.20
2017-05-21T07:08:30.046Z,976.21
2017-05-21T07:09:32.407Z,976.21
2017-05-21T07:10:35.358Z,976.18
2017-05-21T07:11:37.718Z,976.14
2017-05-21T07:12:40.080Z,976.17
2017-05-21T07:13:42.439Z,976.14
2017-05-21T07:14:44.793Z,976.16
2017-05-21T07:15:47.849Z,976.10
2017-05-21T07:16:50.211Z,976.09
2017-05-21T07:17:52.561Z,976.12
2017-05-21T07:18:54.917Z,976.06
2017-05-21T07:19:57.277Z,976.08
2017-05-21T07:21:00.236Z,976.06
2017-05-21T07:22:02.597Z,976.05
2017-05-21T07:23:04.959Z,976.04
2017-05-21T07:24:07.304Z,976.00
2017-05-21T07:25:09.666Z,975.99
2017-05-21T07:26:12.623Z,975.94
2017-05-21T07:27:14.978Z,975.94
2017-05-21T07:28:17.331Z,975.96
2017-05-21T07:29:19.684Z,975.97
2017-05-21T07:30:22.036Z,975.93
2017-05-21T07:31:24.992Z,975.95
2017-05-21T07:32:27.348Z,975.95
2017-05-21T07:33:29.714Z,975.96
2017-05-21T07:34:32.069Z,975.93
2017-05-21T07:35:34.427Z,975.93
2017-05-21T07:36:37.384Z,975.92
2017-05-21T07:37:39.740Z,975.87
2017-05-21T07:38:42.097Z,975.89
2017-05-21T07:39:44.451Z,975.91
2017-05-21T07:40:46.805Z,975.86
2017-05-21T07:41:49.768Z,975.90
2017-05-21T07:42:52.124Z,975.87
2017-05-21T07:43:54.484Z,975.89
2017-05-21T07:44:56.844Z,975.91
2017-05-21T07:45:59.205Z,975.93
2017-05-21T07:47:02.163Z,975.89
2017-05-21T07:48:04.532Z,975.91
2017-05-21T07:49:06.887Z,975.91
2017-05-21T07:50:09.250Z,975.92
2017-05-21T07:51:11.598Z,975.90
2017-05-21T07:52:14.558Z,975.92
2017-05-21T07:53:16.919Z,975.90
2017-05-21T07:54:19.272Z,975.90
2017-05-21T07:55:21.624Z,975.90
2017-05-21T07:56:23.975Z,975.90
2017-05-21T07:57:27.133Z,975.90
2017-05-21T07:58:29.486Z,975.88
2017-05-21T07:59:31.842Z,975.84
2017-05-21T08:00:34.199Z,975.85
2017-05-21T08:01:36.554Z,975.84
2017-05-21T08:02:39.523Z,975.85
2017-05-21T08:03:41.922Z,975.85
2017-05-21T08:04:44.232Z,975.85
2017-05-21T08:05:46.593Z,975.80
2017-05-21T08:06:48.940Z,975.84
2017-05-21T08:07:52.006Z,975.82
2017-05-21T08:08:54.355Z,975.77
2017-05-21T08:09:56.720Z,975.79
2017-05-21T08:10:59.078Z,975.74
2017-05-21T08:12:01.437Z,975.74
2017-05-21T08:13:04.395Z,975.75
2017-05-21T08:14:06.748Z,975.69
2017-05-21T08:15:09.101Z,975.74
2017-05-21T08:16:11.462Z,975.70
2017-05-21T08:17:13.820Z,975.71
2017-05-21T08:18:16.773Z,975.75
2017-05-21T08:19:19.153Z,975.72
2017-05-21T08:20:21.555Z,975.71
2017-05-21T08:21:23.848Z,975.71
2017-05-21T08:22:26.209Z,975.68
2017-05-21T08:23:29.268Z,975.70
2017-05-21T08:24:31.624Z,975.70
2017-05-21T08:25:33.985Z,975.65
2017-05-21T08:26:36.346Z,975.66
2017-05-21T08:27:38.694Z,975.66
2017-05-21T08:28:41.652Z,975.64
2017-05-21T08:29:44.004Z,975.63
2017-05-21T08:30:46.364Z,975.61
2017-05-21T08:31:48.717Z,975.59
2017-05-21T08:32:51.079Z,975.61
2017-05-21T08:33:54.133Z,975.60
2017-05-21T08:34:56.499Z,975.62
2017-05-21T08:35:58.856Z,975.59
2017-05-21T08:37:01.215Z,975.58
2017-05-21T08:38:03.567Z,975.59
2017-05-21T08:39:06.528Z,975.56
2017-05-21T08:40:08.881Z,975.59
2017-05-21T08:41:11.239Z,975.54
2017-05-21T08:42:13.595Z,975.56
2017-05-21T08:43:15.949Z,975.52
2017-05-21T08:44:18.903Z,975.53
2017-05-21T08:45:21.267Z,975.55
2017-05-21T08:46:23.614Z,975.54
2017-05-21T08:47:25.974Z,975.55
2017-05-21T08:48:28.331Z,975.55
2017-05-21T08:49:31.287Z,975.51
2017-05-21T08:50:33.656Z,975.54
2017-05-21T08:51:36.007Z,975.53
2017-05-21T08:52:38.362Z,975.52
2017-05-21T08:53:40.722Z,975.56
2017-05-21T08:54:43.774Z,975.54
2017-05-21T08:55:46.139Z,975.49
2017-05-21T08:56:48.502Z,975.48
2017-05-21T08:57:50.852Z,975.48
2017-05-21T08:58:53.213Z,975.50
2017-05-21T08:59:56.276Z,975.46
2017-05-21T09:00:58.629Z,975.50
2017-05-21T09:02:00.989Z,975.47
2017-05-21T09:03:03.358Z,975.48
2017-05-21T09:04:05.710Z,975.49
2017-05-21T09:05:08.761Z,975.45
2017-05-21T09:06:11.121Z,975.46
2017-05-21T09:07:13.469Z,975.43
2017-05-21T09:08:15.832Z,975.45
2017-05-21T09:09:18.191Z,975.42
2017-05-21T09:10:21.147Z,975.46
2017-05-21T09:11:23.520Z,975.40
2017-05-21T09:12:25.890Z,975.43
2017-05-21T09:13:28.228Z,975.41
2017-05-21T09:14:30.591Z,975.38
2017-05-21T09:15:33.549Z,975.40
2017-05-21T09:16:35.909Z,975.40
2017-05-21T09:17:38.267Z,975.37
2017-05-21T09:18:40.624Z,975.35
2017-05-21T09:19:42.967Z,975.32
2017-05-21T09:20:45.923Z,975.29
2017-05-21T09:21:48.288Z,975.32
2017-05-21T09:22:50.636Z,975.31
2017-05-21T09:23:52.989Z,975.36
2017-05-21T09:24:55.340Z,975.37
2017-05-21T09:25:58.295Z,975.35
2017-05-21T09:27:00.653Z,975.32
2017-05-21T09:28:03.013Z,975.38
2017-05-21T09:29:05.365Z,975.36
2017-05-21T09:30:07.733Z,975.36
2017-05-21T09:31:10.790Z,975.42
2017-05-21T09:32:13.145Z,975.38
2017-05-21T09:33:15.514Z,975.40
2017-05-21T09:34:17.868Z,975.39
2017-05-21T09:35:20.225Z,975.39
2017-05-21T09:36:23.140Z,975.39
2017-05-21T09:37:25.484Z,975.44
2017-05-21T09:38:27.849Z,975.40
2017-05-21T09:39:30.203Z,975.45
2017-05-21T09:40:32.568Z,975.42
2017-05-21T09:41:35.479Z,975.45
2017-05-21T09:42:37.836Z,975.46
2017-05-21T09:43:40.191Z,975.48
2017-05-21T09:44:42.539Z,975.52
2017-05-21T09:45:44.901Z,975.51
2017-05-21T09:46:47.869Z,975.53
2017-05-21T09:47:50.220Z,975.49
2017-05-21T09:48:52.577Z,975.49
2017-05-21T09:49:54.941Z,975.49
2017-05-21T09:50:57.289Z,975.49
2017-05-21T09:52:00.348Z,975.52
2017-05-21T09:53:02.710Z,975.52
2017-05-21T09:54:05.065Z,975.49
2017-05-21T09:55:07.426Z,975.55
2017-05-21T09:56:09.778Z,975.56
2017-05-21T09:57:12.736Z,975.54
2017-05-21T09:58:15.094Z,975.53
2017-05-21T09:59:17.454Z,975.54
2017-05-21T10:00:19.812Z,975.51
2017-05-21T10:01:22.167Z,975.51
2017-05-21T10:02:25.220Z,975.49
2017-05-21T10:03:27.598Z,975.48
2017-05-21T10:04:29.947Z,975.50
2017-05-21T10:05:32.299Z,975.53
2017-05-21T10:06:34.661Z,975.49
2017-05-21T10:07:37.622Z,975.53
2017-05-21T10:08:39.981Z,975.50
2017-05-21T10:09:42.340Z,975.54
2017-05-21T10:10:44.703Z,975.53
2017-05-21T10:11:47.058Z,975.53
2017-05-21T10:12:50.016Z,975.57
2017-05-21T10:13:52.375Z,975.54
2017-05-21T10:14:54.725Z,975.53
2017-05-21T10:15:57.093Z,975.52
2017-05-21T10:16:59.444Z,975.55
2017-05-21T10:18:02.415Z,975.54
2017-05-21T10:19:04.765Z,975.50
2017-05-21T10:20:07.128Z,975.54
2017-05-21T10:21:09.485Z,975.52
2017-05-21T10:22:11.842Z,975.53
2017-05-21T10:23:14.911Z,975.58
2017-05-21T10:24:17.261Z,975.59
2017-05-21T10:25:19.620Z,975.60
2017-05-21T10:26:21.971Z,975.67
2017-05-21T10:27:24.327Z,975.69
2017-05-21T10:28:27.282Z,975.70
2017-05-21T10:29:29.646Z,975.73
2017-05-21T10:30:31.997Z,975.76
2017-05-21T10:31:34.356Z,975.75
2017-05-21T10:32:36.766Z,975.78
2017-05-21T10:33:39.774Z,975.79
2017-05-21T10:34:42.139Z,975.83
2017-05-21T10:35:44.496Z,975.87
2017-05-21T10:36:46.843Z,975.92
2017-05-21T10:37:49.203Z,975.89
2017-05-21T10:38:52.162Z,975.91
2017-05-21T10:39:54.517Z,975.93
2017-05-21T10:40:56.869Z,975.96
2017-05-21T10:41:59.222Z,975.97
2017-05-21T10:43:01.580Z,975.96
2017-05-21T10:44:04.533Z,975.97
2017-05-21T10:45:06.888Z,975.94
2017-05-21T10:46:09.248Z,975.96
2017-05-21T10:47:11.607Z,975.99
2017-05-21T10:48:13.968Z,975.94
2017-05-21T10:49:17.020Z,975.96
2017-05-21T10:50:19.384Z,975.96
2017-05-21T10:51:21.740Z,975.97
2017-05-21T10:52:24.100Z,975.96
2017-05-21T10:53:26.454Z,975.96
2017-05-21T10:54:29.412Z,975.93
2017-05-21T10:55:31.764Z,976.00
2017-05-21T10:56:34.126Z,975.96
2017-05-21T10:57:36.479Z,975.92
2017-05-21T10:58:38.838Z,975.87
2017-05-21T10:59:41.799Z,975.89
2017-05-21T11:00:44.149Z,975.90
2017-05-21T11:01:46.498Z,975.91
2017-05-21T11:02:48.868Z,975.93
2017-05-21T11:03:51.226Z,975.97
2017-05-21T11:04:54.188Z,975.98
2017-05-21T11:05:56.541Z,975.95
2017-05-21T11:06:59.096Z,975.95
2017-05-21T11:08:01.456Z,975.96
2017-05-21T11:09:03.819Z,976.00
2017-05-21T11:10:06.782Z,975.97
2017-05-21T11:11:09.136Z,976.00
2017-05-21T11:12:11.491Z,975.99
2017-05-21T11:13:13.843Z,975.99
2017-05-21T11:14:16.203Z,976.00
2017-05-21T11:15:19.171Z,976.03
2017-05-21T11:16:21.524Z,976.05
2017-05-21T11:17:23.872Z,976.07
2017-05-21T11:18:26.233Z,976.08
2017-05-21T11:19:28.582Z,976.06
2017-05-21T11:20:31.537Z,976.12
2017-05-21T11:21:33.902Z,976.10
2017-05-21T11:22:36.265Z,976.08
2017-05-21T11:23:38.627Z,976.11
2017-05-21T11:24:40.982Z,976.13
2017-05-21T11:25:43.933Z,976.14
2017-05-21T11:26:46.289Z,976.11
2017-05-21T11:27:48.652Z,976.19
2017-05-21T11:28:51.019Z,976.19
2017-05-21T11:29:53.386Z,976.16
2017-05-21T11:30:56.331Z,976.20
2017-05-21T11:31:58.688Z,976.21
2017-05-21T11:33:01.039Z,976.20
2017-05-21T11:34:03.401Z,976.19
2017-05-21T11:35:05.759Z,976.20
2017-05-21T11:36:08.812Z,976.24
2017-05-21T11:37:11.166Z,976.24
2017-05-21T11:38:13.524Z,976.21
2017-05-21T11:39:15.880Z,976.24
2017-05-21T11:40:18.239Z,976.23
2017-05-21T11:41:21.297Z,976.24
2017-05-21T11:42:23.653Z,976.19
2017-05-21T11:43:26.016Z,976.24
2017-05-21T11:44:28.381Z,976.27
2017-05-21T11:45:30.741Z,976.25
2017-05-21T11:46:33.799Z,976.34
2017-05-21T11:47:36.159Z,976.28
2017-05-21T11:48:38.508Z,976.31
2017-05-21T11:49:40.867Z,976.33
2017-05-21T11:50:43.230Z,976.36
2017-05-21T11:51:46.190Z,976.32
2017-05-21T11:52:48.541Z,976.30
2017-05-21T11:53:50.907Z,976.35
2017-05-21T11:54:53.265Z,976.34
2017-05-21T11:55:55.628Z,976.36
2017-05-21T11:56:58.587Z,976.39
2017-05-21T11:58:00.947Z,976.32
2017-05-21T11:59:03.314Z,976.38
2017-05-21T12:00:05.684Z,976.35
2017-05-21T12:01:08.033Z,976.40
2017-05-21T12:02:10.990Z,976.36
2017-05-21T12:03:13.350Z,976.44
2017-05-21T12:04:15.712Z,976.48
2017-05-21T12:05:18.070Z,976.47
2017-05-21T12:06:20.430Z,976.52
2017-05-21T12:07:23.390Z,976.52
2017-05-21T12:08:25.748Z,976.49
2017-05-21T12:09:28.102Z,976.54
2017-05-21T12:10:30.456Z,976.53
2017-05-21T12:11:32.820Z,976.58
2017-05-21T12:12:35.789Z,976.57
2017-05-21T12:13:38.144Z,976.58
2017-05-21T12:14:40.507Z,976.57
2017-05-21T12:15:42.874Z,976.59
2017-05-21T12:16:45.249Z,976.59
2017-05-21T12:17:48.308Z,976.52
2017-05-21T12:18:50.657Z,976.56
2017-05-21T12:19:53.018Z,976.60
2017-05-21T12:20:55.383Z,976.59
2017-05-21T12:21:57.741Z,976.61
2017-05-21T12:23:00.808Z,976.60
2017-05-21T12:24:03.164Z,976.63
2017-05-21T12:25:05.542Z,976.66
2017-05-21T12:26:07.890Z,976.72
2017-05-21T12:27:10.255Z,976.75
2017-05-21T12:28:13.214Z,976.80
2017-05-21T12:29:15.573Z,976.83
2017-05-21T12:30:17.940Z,976.79
2017-05-21T12:31:20.305Z,976.87
2017-05-21T12:32:22.665Z,976.88
2017-05-21T12:33:25.724Z,976.85
2017-05-21T12:34:28.082Z,976.92
2017-05-21T12:35:30.443Z,976.94
2017-05-21T12:36:32.806Z,976.93
2017-05-21T12:37:35.163Z,976.91
2017-05-21T12:38:38.121Z,976.95
2017-05-21T12:39:40.482Z,976.94
2017-05-21T12:40:42.842Z,976.98
2017-05-21T12:41:45.203Z,977.02
2017-05-21T12:42:47.563Z,977.04
2017-05-21T12:43:50.473Z,977.01
2017-05-21T12:44:52.839Z,977.03
2017-05-21T12:45:55.204Z,977.09
2017-05-21T12:46:57.557Z,977.09
2017-05-21T12:47:59.918Z,977.11
2017-05-21T12:49:02.827Z,977.11
2017-05-21T12:50:05.181Z,977.06
2017-05-21T12:51:07.551Z,977.17
2017-05-21T12:52:09.910Z,977.18
2017-05-21T12:53:12.259Z,977.18
2017-05-21T12:54:15.228Z,977.19
2017-05-21T12:55:17.579Z,977.21
2017-05-21T12:56:19.941Z,977.22
2017-05-21T12:57:22.304Z,977.27
2017-05-21T12:58:24.667Z,977.20
2017-05-21T12:59:27.582Z,977.25